sensor_id;sensor_type;location;lat;lon;timestamp;P1;durP1;ratioP1;P2;durP2;ratioP2
53925;SDS011;39836;52.754;6.866;2023-11-22T00:59:59;25.70;;;17.38;;
53925;SDS011;39836;52.754;6.866;2023-11-22T01:02:25;19.38;;;11.90;;
53925;SDS011;39836;52.754;6.866;2023-11-22T01:04:54;26.67;;;17.63;;
53925;SDS011;39836;52.754;6.866;2023-11-22T01:14:25;26.38;;;17.85;;
53925;SDS011;39836;52.754;6.866;2023-11-22T01:17:13;27.52;;;17.75;;
53925;SDS011;39836;52.754;6.866;2023-11-22T01:19:39;28.50;;;17.95;;
53925;SDS011;39836;52.754;6.866;2023-11-22T01:22:05;21.05;;;11.27;;
53925;SDS011;39836;52.754;6.866;2023-11-22T01:24:31;26.73;;;17.48;;
53925;SDS011;39836;52.754;6.866;2023-11-22T01:26:56;25.67;;;18.08;;
53925;SDS011;39836;52.754;6.866;2023-11-22T01:29:22;27.85;;;18.10;;
53925;SDS011;39836;52.754;6.866;2023-11-22T01:31:48;24.77;;;17.92;;
53925;SDS011;39836;52.754;6.866;2023-11-22T01:34:14;29.45;;;19.33;;
53925;SDS011;39836;52.754;6.866;2023-11-22T01:36:43;17.27;;;10.88;;
53925;SDS011;39836;52.754;6.866;2023-11-22T01:39:10;19.75;;;11.40;;
53925;SDS011;39836;52.754;6.866;2023-11-22T01:41:38;27.77;;;17.92;;
53925;SDS011;39836;52.754;6.866;2023-11-22T01:44:04;26.92;;;18.52;;
53925;SDS011;39836;52.754;6.866;2023-11-22T01:46:30;24.10;;;16.70;;
53925;SDS011;39836;52.754;6.866;2023-11-22T01:48:55;27.48;;;18.67;;
53925;SDS011;39836;52.754;6.866;2023-11-22T01:51:21;31.08;;;19.27;;
53925;SDS011;39836;52.754;6.866;2023-11-22T01:53:49;28.20;;;18.55;;
53925;SDS011;39836;52.754;6.866;2023-11-22T01:56:18;29.55;;;19.30;;
53925;SDS011;39836;52.754;6.866;2023-11-22T01:58:48;31.67;;;18.25;;
53925;SDS011;39836;52.754;6.866;2023-11-22T02:01:15;27.17;;;19.17;;
53925;SDS011;39836;52.754;6.866;2023-11-22T02:03:41;27.02;;;19.20;;
53925;SDS011;39836;52.754;6.866;2023-11-22T02:06:07;26.95;;;17.95;;
53925;SDS011;39836;52.754;6.866;2023-11-22T02:08:34;25.00;;;17.30;;
53925;SDS011;39836;52.754;6.866;2023-11-22T02:11:01;25.75;;;17.88;;
53925;SDS011;39836;52.754;6.866;2023-11-22T02:13:32;24.42;;;18.20;;
53925;SDS011;39836;52.754;6.866;2023-11-22T02:15:58;29.17;;;19.17;;
53925;SDS011;39836;52.754;6.866;2023-11-22T02:18:26;28.85;;;19.80;;
53925;SDS011;39836;52.754;6.866;2023-11-22T02:20:52;24.15;;;18.42;;
53925;SDS011;39836;52.754;6.866;2023-11-22T02:23:18;28.77;;;19.88;;
53925;SDS011;39836;52.754;6.866;2023-11-22T02:25:44;26.75;;;18.85;;
53925;SDS011;39836;52.754;6.866;2023-11-22T02:28:12;30.83;;;19.75;;
53925;SDS011;39836;52.754;6.866;2023-11-22T02:30:39;27.77;;;20.00;;
53925;SDS011;39836;52.754;6.866;2023-11-22T02:33:05;25.88;;;18.20;;
53925;SDS011;39836;52.754;6.866;2023-11-22T02:35:31;24.42;;;17.55;;
53925;SDS011;39836;52.754;6.866;2023-11-22T02:37:57;19.15;;;11.73;;
53925;SDS011;39836;52.754;6.866;2023-11-22T12:46:57;9.27;;;7.90;;
53925;SDS011;39836;52.754;6.866;2023-11-22T12:49:24;10.52;;;7.85;;
53925;SDS011;39836;52.754;6.866;2023-11-22T12:51:54;37.65;;;10.02;;
53925;SDS011;39836;52.754;6.866;2023-11-22T12:54:24;10.20;;;7.63;;
53925;SDS011;39836;52.754;6.866;2023-11-22T12:56:50;11.80;;;7.97;;
53925;SDS011;39836;52.754;6.866;2023-11-22T12:59:19;10.98;;;7.63;;
53925;SDS011;39836;52.754;6.866;2023-11-22T13:01:45;10.65;;;8.10;;
53925;SDS011;39836;52.754;6.866;2023-11-22T13:04:23;10.23;;;7.68;;
53925;SDS011;39836;52.754;6.866;2023-11-22T13:06:49;12.10;;;8.10;;
53925;SDS011;39836;52.754;6.866;2023-11-22T13:09:14;9.95;;;7.43;;
53925;SDS011;39836;52.754;6.866;2023-11-22T13:11:41;11.30;;;8.13;;
53925;SDS011;39836;52.754;6.866;2023-11-22T13:14:11;11.50;;;7.88;;
53925;SDS011;39836;52.754;6.866;2023-11-22T13:16:39;9.25;;;7.15;;
53925;SDS011;39836;52.754;6.866;2023-11-22T13:19:05;10.68;;;7.63;;
53925;SDS011;39836;52.754;6.866;2023-11-22T13:21:31;8.98;;;6.97;;
53925;SDS011;39836;52.754;6.866;2023-11-22T13:23:57;11.65;;;8.52;;
53925;SDS011;39836;52.754;6.866;2023-11-22T13:26:25;9.63;;;7.40;;
53925;SDS011;39836;52.754;6.866;2023-11-22T13:28:51;10.35;;;7.80;;
53925;SDS011;39836;52.754;6.866;2023-11-22T13:31:19;9.80;;;7.03;;
53925;SDS011;39836;52.754;6.866;2023-11-22T13:33:46;11.13;;;7.32;;
53925;SDS011;39836;52.754;6.866;2023-11-22T13:36:12;8.50;;;6.90;;
53925;SDS011;39836;52.754;6.866;2023-11-22T13:38:39;10.57;;;8.18;;
53925;SDS011;39836;52.754;6.866;2023-11-22T13:41:05;9.85;;;7.60;;
53925;SDS011;39836;52.754;6.866;2023-11-22T13:43:31;12.85;;;7.60;;
53925;SDS011;39836;52.754;6.866;2023-11-22T13:45:58;11.43;;;8.20;;
53925;SDS011;39836;52.754;6.866;2023-11-22T13:48:24;9.88;;;7.82;;
53925;SDS011;39836;52.754;6.866;2023-11-22T13:50:50;11.82;;;7.90;;
53925;SDS011;39836;52.754;6.866;2023-11-22T13:53:16;12.45;;;8.10;;
53925;SDS011;39836;52.754;6.866;2023-11-22T13:55:46;9.88;;;7.70;;
53925;SDS011;39836;52.754;6.866;2023-11-22T13:58:12;10.93;;;7.45;;
53925;SDS011;39836;52.754;6.866;2023-11-22T14:00:38;10.88;;;7.93;;
53925;SDS011;39836;52.754;6.866;2023-11-22T14:03:04;10.27;;;7.82;;
53925;SDS011;39836;52.754;6.866;2023-11-22T14:05:36;9.13;;;7.32;;
53925;SDS011;39836;52.754;6.866;2023-11-22T14:08:04;9.20;;;7.72;;
53925;SDS011;39836;52.754;6.866;2023-11-22T14:10:31;10.48;;;7.85;;
53925;SDS011;39836;52.754;6.866;2023-11-22T14:12:58;11.45;;;8.35;;
53925;SDS011;39836;52.754;6.866;2023-11-22T14:15:25;10.35;;;7.50;;
53925;SDS011;39836;52.754;6.866;2023-11-22T14:17:53;12.70;;;8.02;;
53925;SDS011;39836;52.754;6.866;2023-11-22T14:20:20;10.25;;;8.15;;
53925;SDS011;39836;52.754;6.866;2023-11-22T14:22:46;9.48;;;7.50;;
53925;SDS011;39836;52.754;6.866;2023-11-22T14:25:13;10.80;;;8.02;;
53925;SDS011;39836;52.754;6.866;2023-11-22T14:27:41;10.57;;;7.80;;
53925;SDS011;39836;52.754;6.866;2023-11-22T14:30:08;9.77;;;7.38;;
53925;SDS011;39836;52.754;6.866;2023-11-22T14:32:36;10.85;;;8.23;;
53925;SDS011;39836;52.754;6.866;2023-11-22T14:35:05;9.45;;;7.57;;
53925;SDS011;39836;52.754;6.866;2023-11-22T14:37:33;12.55;;;8.02;;
53925;SDS011;39836;52.754;6.866;2023-11-22T14:39:59;9.75;;;7.53;;
53925;SDS011;39836;52.754;6.866;2023-11-22T14:42:25;9.45;;;7.43;;
53925;SDS011;39836;52.754;6.866;2023-11-22T14:44:52;10.75;;;8.40;;
53925;SDS011;39836;52.754;6.866;2023-11-22T14:47:19;9.40;;;7.97;;
53925;SDS011;39836;52.754;6.866;2023-11-22T14:49:49;10.70;;;8.48;;
53925;SDS011;39836;52.754;6.866;2023-11-22T14:52:19;10.38;;;8.02;;
53925;SDS011;39836;52.754;6.866;2023-11-22T14:54:46;12.23;;;8.40;;
53925;SDS011;39836;52.754;6.866;2023-11-22T14:57:12;11.02;;;8.13;;
53925;SDS011;39836;52.754;6.866;2023-11-22T14:59:40;13.55;;;8.25;;
53925;SDS011;39836;52.754;6.866;2023-11-22T15:02:06;11.98;;;8.60;;
53925;SDS011;39836;52.754;6.866;2023-11-22T15:04:36;10.95;;;8.43;;
53925;SDS011;39836;52.754;6.866;2023-11-22T15:07:05;13.18;;;8.65;;
53925;SDS011;39836;52.754;6.866;2023-11-22T15:09:31;12.63;;;9.35;;
53925;SDS011;39836;52.754;6.866;2023-11-22T15:12:00;10.45;;;8.05;;
53925;SDS011;39836;52.754;6.866;2023-11-22T15:14:29;12.02;;;9.50;;
53925;SDS011;39836;52.754;6.866;2023-11-22T15:16:55;10.88;;;8.55;;
53925;SDS011;39836;52.754;6.866;2023-11-22T15:19:21;12.18;;;8.90;;
53925;SDS011;39836;52.754;6.866;2023-11-22T15:21:49;13.63;;;8.90;;
53925;SDS011;39836;52.754;6.866;2023-11-22T15:24:17;12.00;;;8.23;;
53925;SDS011;39836;52.754;6.866;2023-11-22T15:26:43;11.60;;;8.85;;
53925;SDS011;39836;52.754;6.866;2023-11-22T15:29:09;14.55;;;9.40;;
53925;SDS011;39836;52.754;6.866;2023-11-22T15:31:34;14.27;;;9.38;;
53925;SDS011;39836;52.754;6.866;2023-11-22T15:34:00;13.52;;;9.73;;
53925;SDS011;39836;52.754;6.866;2023-11-22T15:36:27;13.65;;;10.25;;
53925;SDS011;39836;52.754;6.866;2023-11-22T15:38:53;13.77;;;9.57;;
53925;SDS011;39836;52.754;6.866;2023-11-22T15:41:18;13.68;;;9.65;;
53925;SDS011;39836;52.754;6.866;2023-11-22T15:43:44;14.10;;;10.00;;
53925;SDS011;39836;52.754;6.866;2023-11-22T15:46:11;15.15;;;10.65;;
53925;SDS011;39836;52.754;6.866;2023-11-22T15:48:38;14.68;;;9.82;;
53925;SDS011;39836;52.754;6.866;2023-11-22T15:51:04;14.00;;;10.43;;
53925;SDS011;39836;52.754;6.866;2023-11-22T15:53:33;14.43;;;10.40;;
53925;SDS011;39836;52.754;6.866;2023-11-22T15:55:59;15.02;;;10.18;;
53925;SDS011;39836;52.754;6.866;2023-11-22T15:58:24;15.52;;;10.90;;
53925;SDS011;39836;52.754;6.866;2023-11-22T16:00:50;13.50;;;9.95;;
53925;SDS011;39836;52.754;6.866;2023-11-22T16:03:18;16.55;;;11.57;;
53925;SDS011;39836;52.754;6.866;2023-11-22T16:05:44;16.33;;;11.82;;
53925;SDS011;39836;52.754;6.866;2023-11-22T16:08:10;18.05;;;10.95;;
53925;SDS011;39836;52.754;6.866;2023-11-22T16:10:37;17.60;;;11.82;;
53925;SDS011;39836;52.754;6.866;2023-11-22T16:13:02;15.93;;;12.18;;
53925;SDS011;39836;52.754;6.866;2023-11-22T16:15:28;16.08;;;11.48;;
53925;SDS011;39836;52.754;6.866;2023-11-22T16:17:54;17.08;;;12.80;;
53925;SDS011;39836;52.754;6.866;2023-11-22T16:20:21;19.30;;;12.00;;
53925;SDS011;39836;52.754;6.866;2023-11-22T16:22:47;19.08;;;12.23;;
53925;SDS011;39836;52.754;6.866;2023-11-22T16:25:15;19.95;;;12.60;;
53925;SDS011;39836;52.754;6.866;2023-11-22T16:27:50;20.75;;;14.05;;
53925;SDS011;39836;52.754;6.866;2023-11-22T16:30:16;20.98;;;13.77;;
53925;SDS011;39836;52.754;6.866;2023-11-22T16:32:42;21.13;;;15.07;;
53925;SDS011;39836;52.754;6.866;2023-11-22T16:35:08;23.55;;;15.10;;
53925;SDS011;39836;52.754;6.866;2023-11-22T16:37:35;23.33;;;15.10;;
53925;SDS011;39836;52.754;6.866;2023-11-22T16:40:01;22.90;;;14.57;;
53925;SDS011;39836;52.754;6.866;2023-11-22T16:42:33;24.50;;;16.35;;
53925;SDS011;39836;52.754;6.866;2023-11-22T16:44:59;25.45;;;15.35;;
53925;SDS011;39836;52.754;6.866;2023-11-22T16:47:25;23.58;;;15.90;;
53925;SDS011;39836;52.754;6.866;2023-11-22T16:49:51;26.23;;;16.67;;
53925;SDS011;39836;52.754;6.866;2023-11-22T16:52:17;26.77;;;16.20;;
53925;SDS011;39836;52.754;6.866;2023-11-22T16:54:43;28.88;;;17.55;;
53925;SDS011;39836;52.754;6.866;2023-11-22T16:57:09;26.10;;;16.02;;
53925;SDS011;39836;52.754;6.866;2023-11-22T16:59:38;29.23;;;18.52;;
53925;SDS011;39836;52.754;6.866;2023-11-22T17:02:09;29.80;;;18.75;;
53925;SDS011;39836;52.754;6.866;2023-11-22T17:04:37;32.78;;;19.95;;
53925;SDS011;39836;52.754;6.866;2023-11-22T17:07:05;33.78;;;19.95;;
53925;SDS011;39836;52.754;6.866;2023-11-22T17:09:31;33.90;;;20.48;;
53925;SDS011;39836;52.754;6.866;2023-11-22T17:11:56;31.40;;;19.23;;
53925;SDS011;39836;52.754;6.866;2023-11-22T17:14:22;33.88;;;20.58;;
53925;SDS011;39836;52.754;6.866;2023-11-22T17:16:48;34.08;;;21.50;;
53925;SDS011;39836;52.754;6.866;2023-11-22T17:19:14;35.45;;;20.35;;
53925;SDS011;39836;52.754;6.866;2023-11-22T17:21:39;38.92;;;23.30;;
53925;SDS011;39836;52.754;6.866;2023-11-22T17:24:06;41.63;;;22.63;;
53925;SDS011;39836;52.754;6.866;2023-11-22T17:26:33;40.97;;;23.42;;
53925;SDS011;39836;52.754;6.866;2023-11-22T17:28:58;37.63;;;24.00;;
53925;SDS011;39836;52.754;6.866;2023-11-22T17:31:24;40.78;;;23.35;;
53925;SDS011;39836;52.754;6.866;2023-11-22T17:33:50;40.67;;;24.77;;
53925;SDS011;39836;52.754;6.866;2023-11-22T17:36:16;44.80;;;24.90;;
53925;SDS011;39836;52.754;6.866;2023-11-22T17:38:42;42.70;;;23.83;;
53925;SDS011;39836;52.754;6.866;2023-11-22T17:41:08;45.50;;;25.60;;
53925;SDS011;39836;52.754;6.866;2023-11-22T17:43:34;43.47;;;24.83;;
53925;SDS011;39836;52.754;6.866;2023-11-22T17:46:00;47.85;;;25.95;;
53925;SDS011;39836;52.754;6.866;2023-11-22T17:48:26;46.28;;;27.02;;
53925;SDS011;39836;52.754;6.866;2023-11-22T17:50:52;49.58;;;27.58;;
53925;SDS011;39836;52.754;6.866;2023-11-22T17:53:17;41.20;;;23.75;;
53925;SDS011;39836;52.754;6.866;2023-11-22T17:55:43;46.13;;;26.40;;
53925;SDS011;39836;52.754;6.866;2023-11-22T17:58:09;49.92;;;26.95;;
53925;SDS011;39836;52.754;6.866;2023-11-22T18:00:34;45.47;;;26.17;;
53925;SDS011;39836;52.754;6.866;2023-11-22T18:03:00;46.28;;;26.98;;
53925;SDS011;39836;52.754;6.866;2023-11-22T18:05:26;49.40;;;27.80;;
53925;SDS011;39836;52.754;6.866;2023-11-22T18:07:52;49.42;;;27.98;;
53925;SDS011;39836;52.754;6.866;2023-11-22T18:10:18;47.67;;;28.55;;
53925;SDS011;39836;52.754;6.866;2023-11-22T18:12:44;52.28;;;29.25;;
53925;SDS011;39836;52.754;6.866;2023-11-22T18:15:10;51.45;;;27.67;;
53925;SDS011;39836;52.754;6.866;2023-11-22T18:17:41;48.47;;;26.58;;
53925;SDS011;39836;52.754;6.866;2023-11-22T18:20:07;54.17;;;29.73;;
53925;SDS011;39836;52.754;6.866;2023-11-22T18:22:37;54.45;;;30.17;;
53925;SDS011;39836;52.754;6.866;2023-11-22T18:25:03;51.63;;;29.13;;
53925;SDS011;39836;52.754;6.866;2023-11-22T18:27:33;53.58;;;28.73;;
53925;SDS011;39836;52.754;6.866;2023-11-22T18:29:59;54.65;;;29.77;;
53925;SDS011;39836;52.754;6.866;2023-11-22T18:32:26;53.13;;;28.15;;
53925;SDS011;39836;52.754;6.866;2023-11-22T18:34:52;55.47;;;28.98;;
53925;SDS011;39836;52.754;6.866;2023-11-22T18:37:18;53.60;;;28.40;;
53925;SDS011;39836;52.754;6.866;2023-11-22T18:39:44;52.08;;;28.10;;
53925;SDS011;39836;52.754;6.866;2023-11-22T18:42:12;50.75;;;28.17;;
53925;SDS011;39836;52.754;6.866;2023-11-22T18:44:38;52.58;;;29.58;;
53925;SDS011;39836;52.754;6.866;2023-11-22T18:47:06;50.47;;;26.48;;
53925;SDS011;39836;52.754;6.866;2023-11-22T18:49:33;50.80;;;27.48;;
53925;SDS011;39836;52.754;6.866;2023-11-22T18:51:59;47.03;;;26.13;;
53925;SDS011;39836;52.754;6.866;2023-11-22T18:54:25;51.65;;;27.42;;
53925;SDS011;39836;52.754;6.866;2023-11-22T18:56:51;45.22;;;25.20;;
53925;SDS011;39836;52.754;6.866;2023-11-22T18:59:17;53.10;;;27.80;;
53925;SDS011;39836;52.754;6.866;2023-11-22T19:01:47;47.38;;;25.38;;
53925;SDS011;39836;52.754;6.866;2023-11-22T19:04:14;47.28;;;25.17;;
53925;SDS011;39836;52.754;6.866;2023-11-22T19:06:40;47.50;;;26.55;;
53925;SDS011;39836;52.754;6.866;2023-11-22T19:09:07;47.88;;;24.48;;
53925;SDS011;39836;52.754;6.866;2023-11-22T19:11:36;46.20;;;25.30;;
53925;SDS011;39836;52.754;6.866;2023-11-22T19:14:02;48.13;;;24.30;;
53925;SDS011;39836;52.754;6.866;2023-11-22T19:16:28;48.22;;;24.85;;
53925;SDS011;39836;52.754;6.866;2023-11-22T19:18:55;44.25;;;25.02;;
53925;SDS011;39836;52.754;6.866;2023-11-22T19:21:21;48.03;;;24.95;;
53925;SDS011;39836;52.754;6.866;2023-11-22T19:23:48;48.67;;;26.23;;
53925;SDS011;39836;52.754;6.866;2023-11-22T19:26:22;43.72;;;24.75;;
53925;SDS011;39836;52.754;6.866;2023-11-22T19:28:48;44.35;;;24.20;;
53925;SDS011;39836;52.754;6.866;2023-11-22T19:31:15;42.25;;;23.85;;
53925;SDS011;39836;52.754;6.866;2023-11-22T19:33:41;47.20;;;25.48;;
53925;SDS011;39836;52.754;6.866;2023-11-22T19:36:06;45.55;;;25.00;;
53925;SDS011;39836;52.754;6.866;2023-11-22T19:38:32;48.00;;;24.27;;
53925;SDS011;39836;52.754;6.866;2023-11-22T19:40:58;48.92;;;24.65;;
53925;SDS011;39836;52.754;6.866;2023-11-22T19:43:24;44.10;;;22.67;;
53925;SDS011;39836;52.754;6.866;2023-11-22T19:45:50;48.70;;;25.30;;
53925;SDS011;39836;52.754;6.866;2023-11-22T19:48:16;47.88;;;24.10;;
53925;SDS011;39836;52.754;6.866;2023-11-22T19:50:42;47.05;;;25.52;;
53925;SDS011;39836;52.754;6.866;2023-11-22T19:53:08;47.78;;;25.05;;
53925;SDS011;39836;52.754;6.866;2023-11-22T19:55:34;44.70;;;26.65;;
53925;SDS011;39836;52.754;6.866;2023-11-22T19:58:00;47.75;;;26.27;;
53925;SDS011;39836;52.754;6.866;2023-11-22T20:00:29;47.40;;;26.55;;
53925;SDS011;39836;52.754;6.866;2023-11-22T20:02:56;45.95;;;27.10;;
53925;SDS011;39836;52.754;6.866;2023-11-22T20:05:25;49.63;;;26.73;;
53925;SDS011;39836;52.754;6.866;2023-11-22T20:07:51;47.53;;;27.52;;
53925;SDS011;39836;52.754;6.866;2023-11-22T20:10:17;49.88;;;26.63;;
53925;SDS011;39836;52.754;6.866;2023-11-22T20:12:49;47.40;;;27.35;;
53925;SDS011;39836;52.754;6.866;2023-11-22T20:15:17;51.40;;;27.77;;
53925;SDS011;39836;52.754;6.866;2023-11-22T20:17:43;48.92;;;26.75;;
53925;SDS011;39836;52.754;6.866;2023-11-22T20:20:10;46.15;;;26.15;;
53925;SDS011;39836;52.754;6.866;2023-11-22T20:22:36;47.88;;;30.58;;
53925;SDS011;39836;52.754;6.866;2023-11-22T20:25:02;46.20;;;29.42;;
53925;SDS011;39836;52.754;6.866;2023-11-22T20:27:28;47.55;;;29.17;;
53925;SDS011;39836;52.754;6.866;2023-11-22T20:29:54;46.03;;;28.33;;
53925;SDS011;39836;52.754;6.866;2023-11-22T20:32:20;45.67;;;27.85;;
53925;SDS011;39836;52.754;6.866;2023-11-22T20:34:46;45.53;;;28.40;;
53925;SDS011;39836;52.754;6.866;2023-11-22T20:37:12;46.50;;;28.58;;
53925;SDS011;39836;52.754;6.866;2023-11-22T20:39:39;46.38;;;28.40;;
53925;SDS011;39836;52.754;6.866;2023-11-22T20:42:07;50.45;;;27.50;;
53925;SDS011;39836;52.754;6.866;2023-11-22T20:44:33;48.85;;;27.75;;
53925;SDS011;39836;52.754;6.866;2023-11-22T20:46:58;51.70;;;30.23;;
53925;SDS011;39836;52.754;6.866;2023-11-22T20:49:24;55.03;;;28.50;;
53925;SDS011;39836;52.754;6.866;2023-11-22T20:51:51;56.55;;;30.73;;
53925;SDS011;39836;52.754;6.866;2023-11-22T20:54:17;51.45;;;29.25;;
53925;SDS011;39836;52.754;6.866;2023-11-22T20:56:43;51.30;;;27.88;;
53925;SDS011;39836;52.754;6.866;2023-11-22T20:59:09;53.72;;;28.45;;
53925;SDS011;39836;52.754;6.866;2023-11-22T21:01:34;59.30;;;30.52;;
53925;SDS011;39836;52.754;6.866;2023-11-22T21:04:00;53.42;;;30.35;;
53925;SDS011;39836;52.754;6.866;2023-11-22T21:06:26;57.50;;;30.50;;
53925;SDS011;39836;52.754;6.866;2023-11-22T21:08:52;53.38;;;29.90;;
53925;SDS011;39836;52.754;6.866;2023-11-22T21:11:18;54.05;;;28.60;;
53925;SDS011;39836;52.754;6.866;2023-11-22T21:13:44;71.85;;;37.67;;
53925;SDS011;39836;52.754;6.866;2023-11-22T21:16:10;67.85;;;35.42;;
53925;SDS011;39836;52.754;6.866;2023-11-22T21:18:35;72.35;;;31.92;;
53925;SDS011;39836;52.754;6.866;2023-11-22T21:21:02;61.90;;;29.23;;
53925;SDS011;39836;52.754;6.866;2023-11-22T21:23:30;76.93;;;39.20;;
53925;SDS011;39836;52.754;6.866;2023-11-22T21:25:55;63.72;;;31.85;;
53925;SDS011;39836;52.754;6.866;2023-11-22T21:28:21;67.32;;;30.88;;
53925;SDS011;39836;52.754;6.866;2023-11-22T21:30:47;65.70;;;33.05;;
53925;SDS011;39836;52.754;6.866;2023-11-22T21:33:12;71.40;;;34.50;;
53925;SDS011;39836;52.754;6.866;2023-11-22T21:35:38;72.40;;;35.58;;
53925;SDS011;39836;52.754;6.866;2023-11-22T21:38:04;75.50;;;33.78;;
53925;SDS011;39836;52.754;6.866;2023-11-22T21:40:30;70.68;;;36.05;;
53925;SDS011;39836;52.754;6.866;2023-11-22T21:42:55;77.65;;;34.72;;
53925;SDS011;39836;52.754;6.866;2023-11-22T21:45:22;73.75;;;35.70;;
53925;SDS011;39836;52.754;6.866;2023-11-22T21:47:48;80.80;;;38.38;;
53925;SDS011;39836;52.754;6.866;2023-11-22T21:50:13;78.00;;;37.70;;
53925;SDS011;39836;52.754;6.866;2023-11-22T21:52:39;69.60;;;34.72;;
53925;SDS011;39836;52.754;6.866;2023-11-22T21:55:06;77.28;;;36.63;;
53925;SDS011;39836;52.754;6.866;2023-11-22T21:57:32;72.47;;;36.38;;
53925;SDS011;39836;52.754;6.866;2023-11-22T21:59:58;80.57;;;39.45;;
53925;SDS011;39836;52.754;6.866;2023-11-22T22:02:26;71.10;;;36.58;;
53925;SDS011;39836;52.754;6.866;2023-11-22T22:04:52;78.13;;;38.22;;
53925;SDS011;39836;52.754;6.866;2023-11-22T22:07:18;74.03;;;37.83;;
53925;SDS011;39836;52.754;6.866;2023-11-22T22:09:44;71.82;;;37.78;;
53925;SDS011;39836;52.754;6.866;2023-11-22T22:12:10;75.53;;;35.67;;
53925;SDS011;39836;52.754;6.866;2023-11-22T22:14:36;74.60;;;38.92;;
53925;SDS011;39836;52.754;6.866;2023-11-22T22:17:01;76.65;;;36.70;;
53925;SDS011;39836;52.754;6.866;2023-11-22T22:19:27;71.10;;;37.15;;
53925;SDS011;39836;52.754;6.866;2023-11-22T22:21:53;69.78;;;37.17;;
53925;SDS011;39836;52.754;6.866;2023-11-22T22:24:19;75.20;;;36.90;;
53925;SDS011;39836;52.754;6.866;2023-11-22T22:26:45;73.53;;;37.28;;
53925;SDS011;39836;52.754;6.866;2023-11-22T22:29:11;74.35;;;36.90;;
53925;SDS011;39836;52.754;6.866;2023-11-22T22:31:37;65.65;;;35.72;;
53925;SDS011;39836;52.754;6.866;2023-11-22T22:34:03;69.90;;;38.28;;
53925;SDS011;39836;52.754;6.866;2023-11-22T22:36:29;73.72;;;36.92;;
53925;SDS011;39836;52.754;6.866;2023-11-22T22:38:54;69.15;;;38.45;;
53925;SDS011;39836;52.754;6.866;2023-11-22T22:41:20;76.63;;;38.58;;
53925;SDS011;39836;52.754;6.866;2023-11-22T22:43:47;70.60;;;37.70;;
53925;SDS011;39836;52.754;6.866;2023-11-22T22:46:13;73.03;;;39.00;;
53925;SDS011;39836;52.754;6.866;2023-11-22T22:48:40;75.80;;;41.03;;
53925;SDS011;39836;52.754;6.866;2023-11-22T22:51:16;73.60;;;38.17;;
53925;SDS011;39836;52.754;6.866;2023-11-22T22:53:45;73.68;;;37.55;;
53925;SDS011;39836;52.754;6.866;2023-11-22T22:56:16;73.10;;;38.55;;
53925;SDS011;39836;52.754;6.866;2023-11-22T22:58:43;78.07;;;40.28;;
53925;SDS011;39836;52.754;6.866;2023-11-22T23:01:12;74.88;;;38.40;;
53925;SDS011;39836;52.754;6.866;2023-11-22T23:03:40;79.38;;;41.53;;
53925;SDS011;39836;52.754;6.866;2023-11-22T23:06:08;78.93;;;40.15;;
53925;SDS011;39836;52.754;6.866;2023-11-22T23:08:37;78.28;;;42.47;;
53925;SDS011;39836;52.754;6.866;2023-11-22T23:11:03;85.10;;;41.30;;
53925;SDS011;39836;52.754;6.866;2023-11-22T23:13:32;77.03;;;40.47;;
53925;SDS011;39836;52.754;6.866;2023-11-22T23:15:57;84.07;;;40.95;;
53925;SDS011;39836;52.754;6.866;2023-11-22T23:18:23;80.30;;;41.03;;
53925;SDS011;39836;52.754;6.866;2023-11-22T23:20:49;85.28;;;42.17;;
53925;SDS011;39836;52.754;6.866;2023-11-22T23:23:14;82.20;;;39.65;;
53925;SDS011;39836;52.754;6.866;2023-11-22T23:25:41;84.05;;;41.65;;
53925;SDS011;39836;52.754;6.866;2023-11-22T23:28:07;79.07;;;40.65;;
53925;SDS011;39836;52.754;6.866;2023-11-22T23:30:32;81.20;;;40.00;;
53925;SDS011;39836;52.754;6.866;2023-11-22T23:32:58;86.05;;;43.55;;
53925;SDS011;39836;52.754;6.866;2023-11-22T23:35:24;87.32;;;41.15;;
53925;SDS011;39836;52.754;6.866;2023-11-22T23:37:49;89.63;;;43.20;;
53925;SDS011;39836;52.754;6.866;2023-11-22T23:40:15;84.38;;;41.67;;
53925;SDS011;39836;52.754;6.866;2023-11-22T23:42:50;86.28;;;39.95;;
53925;SDS011;39836;52.754;6.866;2023-11-22T23:45:17;85.70;;;42.47;;
53925;SDS011;39836;52.754;6.866;2023-11-22T23:47:44;97.10;;;43.17;;
53925;SDS011;39836;52.754;6.866;2023-11-22T23:50:10;108.90;;;46.67;;
53925;SDS011;39836;52.754;6.866;2023-11-22T23:52:37;102.28;;;44.35;;
53925;SDS011;39836;52.754;6.866;2023-11-22T23:55:03;106.65;;;45.75;;
53925;SDS011;39836;52.754;6.866;2023-11-22T23:57:33;96.85;;;45.33;;
